LFOK

Châlons-Vatry Air Base

Airport
ICAO code
LFOK
IATA Code
XCR
Summary
ICAO Region
EUR
ICAO Territory
Location

, Champagne-Ardenne

Serving
Chalons
Elevation
587 ft
Coordinates
48° 46' 34" N , 4° 11' 4" E
Metar
Observation
LFOK 030230Z AUTO 04013KT 9999 OVC013 03/02 Q1016 TEMPO 3000 DZ BR OVC003
Station
Chalons-Vatry
Date/Time
2022-12-03 02:30:00
Wind direction
40°
Wind speed
13 kts
Lowest cloud amount
overcast
Temperature
3°C
Dew point
2°C
Humidity
93%
QNH
1016 hPa
Weather condition
n/a

Runways

Designator Length Width Surface Rops
10/28 3860 45 CON Yes/Yes

Airport map

Aerial View

SKYbrary Partners:

Safety knowledge contributed by: